Time;durP1;ratioP1;P1;durP2;ratioP2;P2;SDS_P1;SDS_P2;PMS_P1;PMS_P2;Temp;Humidity;BMP_temperature;BMP_pressure;BME280_temperature;BME280_humidity;BME280_pressure;Samples;Min_cycle;Max_cycle;Signal;HPM_P1;HPM_P2
2022/02/28 00:00:45;;;;;;;7.22;3.72;;;;;;;-2.16;56.87;101736.63;4900916;29;20102;-78
2022/02/28 00:03:11;;;;;;;8.07;3.75;;;;;;;-2.24;56.25;101730.06;4900794;29;20048;-78
2022/02/28 00:05:37;;;;;;;7.00;3.42;;;;;;;-2.32;56.12;101726.09;4873852;29;20040;-79
2022/02/28 00:08:03;;;;;;;10.27;3.63;;;;;;;-2.32;56.82;101732.06;4900061;29;20067;-79
2022/02/28 00:10:30;;;;;;;6.40;3.08;;;;;;;-2.43;56.80;101720.19;4898155;29;20095;-78
2022/02/28 00:12:56;;;;;;;5.93;3.28;;;;;;;-2.50;56.82;101711.16;4900211;29;20040;-78
2022/02/28 00:15:22;;;;;;;5.80;3.08;;;;;;;-2.39;57.30;101721.28;4900671;29;20091;-79
2022/02/28 00:17:49;;;;;;;6.32;3.38;;;;;;;-2.36;57.09;101722.41;4900750;29;20044;-77
2022/02/28 00:20:17;;;;;;;6.90;3.20;;;;;;;-2.30;57.40;101737.25;4902735;29;20414;-78
2022/02/28 00:22:43;;;;;;;5.95;2.95;;;;;;;-2.44;57.14;101716.72;4914096;29;20082;-77
2022/02/28 00:25:10;;;;;;;6.80;3.40;;;;;;;-2.49;57.25;101696.78;4884021;29;20470;-79
2022/02/28 00:27:36;;;;;;;5.93;2.83;;;;;;;-2.31;57.30;101730.38;4899722;29;20147;-79
2022/02/28 00:30:06;;;;;;;5.70;3.15;;;;;;;-2.30;57.56;101727.06;4900345;29;20139;-79
2022/02/28 00:32:32;;;;;;;5.63;3.33;;;;;;;-2.27;57.24;101727.28;4884734;29;20036;-77
2022/02/28 00:35:00;;;;;;;5.30;3.17;;;;;;;-2.39;57.41;101721.28;4900120;29;20068;-80
2022/02/28 00:37:26;;;;;;;4.97;3.10;;;;;;;-2.30;57.60;101729.59;4900247;29;20502;-77
2022/02/28 00:39:52;;;;;;;5.68;3.40;;;;;;;-2.36;57.40;101726.63;4901145;29;20048;-78
2022/02/28 00:42:18;;;;;;;6.68;3.67;;;;;;;-2.31;57.39;101730.38;4901132;29;20120;-77
2022/02/28 00:44:44;;;;;;;5.05;3.10;;;;;;;-2.34;56.49;101741.25;4886216;29;20044;-78
2022/02/28 00:47:11;;;;;;;6.35;3.33;;;;;;;-2.38;57.37;101738.38;4884855;29;20056;-77
2022/02/28 00:49:37;;;;;;;6.57;2.90;;;;;;;-2.50;57.82;101708.63;4872643;29;20040;-78
2022/02/28 00:52:04;;;;;;;7.30;3.75;;;;;;;-2.38;57.41;101730.72;4898264;29;20054;-79
2022/02/28 00:54:30;;;;;;;6.20;3.42;;;;;;;-2.58;57.78;101691.88;4901073;29;20040;-78
2022/02/28 00:56:57;;;;;;;6.15;3.38;;;;;;;-2.50;57.76;101717.94;4891106;29;20154;-79
2022/02/28 00:59:24;;;;;;;6.68;3.20;;;;;;;-2.42;57.77;101732.13;4874021;29;20040;-77
2022/02/28 01:01:50;;;;;;;5.75;2.85;;;;;;;-2.43;57.77;101723.59;4903270;29;20127;-77
2022/02/28 01:04:17;;;;;;;5.82;3.55;;;;;;;-2.41;57.84;101728.81;4901114;29;20045;-77
2022/02/28 01:06:43;;;;;;;7.07;3.28;;;;;;;-2.37;57.83;101724.84;4898045;29;20056;-77
2022/02/28 01:09:09;;;;;;;5.18;3.17;;;;;;;-2.46;57.76;101713.19;4888446;29;20402;-78
2022/02/28 01:11:35;;;;;;;8.02;3.30;;;;;;;-2.44;57.91;101721.84;4888107;29;20036;-79
2022/02/28 01:14:04;;;;;;;9.43;3.30;;;;;;;-2.35;57.72;101730.94;4898687;29;20114;-80
2022/02/28 01:16:31;;;;;;;5.28;3.17;;;;;;;-2.40;57.63;101724.63;4869430;29;20044;-78
2022/02/28 01:18:57;;;;;;;10.18;3.45;;;;;;;-2.43;58.03;101717.63;4901567;29;20051;-78
2022/02/28 01:21:23;;;;;;;8.00;3.28;;;;;;;-2.40;58.05;101716.97;4905817;29;20044;-78
2022/02/28 01:23:50;;;;;;;7.22;3.25;;;;;;;-2.80;58.20;101656.22;4884144;29;20111;-78
2022/02/28 01:26:16;;;;;;;7.25;2.83;;;;;;;-2.66;57.79;101681.13;4882216;29;20470;-78
2022/02/28 01:28:42;;;;;;;6.93;2.90;;;;;;;-2.41;57.95;101723.72;4901199;29;20052;-77
2022/02/28 01:31:08;;;;;;;8.43;3.47;;;;;;;-2.43;58.15;101718.50;4895743;29;20055;-77
2022/02/28 01:33:34;;;;;;;5.03;3.00;;;;;;;-2.51;58.03;101709.38;4891148;29;20044;-78
2022/02/28 01:36:01;;;;;;;9.07;2.75;;;;;;;-2.45;58.03;101726.84;4905692;29;20444;-77
2022/02/28 01:38:27;;;;;;;6.53;3.00;;;;;;;-2.49;58.26;101715.50;4900297;29;20522;-78
2022/02/28 01:40:53;;;;;;;5.72;3.08;;;;;;;-2.42;58.15;101727.03;4905879;29;20144;-79
2022/02/28 01:43:20;;;;;;;4.43;2.60;;;;;;;-2.48;57.51;101731.69;4902180;29;20076;-79
2022/02/28 01:45:46;;;;;;;4.55;2.95;;;;;;;-2.49;57.82;101717.16;4869939;29;20041;-77
2022/02/28 01:48:12;;;;;;;8.23;3.92;;;;;;;-2.55;58.17;101712.50;4902215;29;20502;-78
2022/02/28 01:50:38;;;;;;;8.15;3.65;;;;;;;-2.48;58.00;101726.59;4900310;29;20051;-78
2022/02/28 01:53:04;;;;;;;8.00;3.70;;;;;;;-2.64;57.78;101705.03;4903802;29;20569;-77
2022/02/28 01:55:30;;;;;;;9.07;3.25;;;;;;;-2.51;58.36;101714.50;4902893;29;20487;-78
2022/02/28 01:57:56;;;;;;;5.65;3.50;;;;;;;-2.45;58.49;101729.38;4905955;29;20055;-78
2022/02/28 02:00:25;;;;;;;5.90;3.38;;;;;;;-2.55;58.31;101707.41;4887760;29;20040;-78
2022/02/28 02:02:51;;;;;;;13.40;4.53;;;;;;;-2.49;58.28;101719.72;4903475;29;20080;-78
2022/02/28 02:05:17;;;;;;;10.88;4.63;;;;;;;-2.59;58.05;101707.94;4886268;29;20048;-79
2022/02/28 02:07:45;;;;;;;11.20;4.57;;;;;;;-2.55;58.02;101720.16;4905903;29;20131;-79
2022/02/28 02:10:12;;;;;;;10.15;4.13;;;;;;;-2.65;58.29;101712.56;4888665;29;20052;-77
2022/02/28 02:12:39;;;;;;;17.08;4.45;;;;;;;-2.66;58.19;101715.91;4891876;29;20075;-78
2022/02/28 02:15:08;;;;;;;10.20;5.00;;;;;;;-2.76;58.13;101699.91;4906066;29;20637;-77
2022/02/28 02:17:36;;;;;;;8.73;5.10;;;;;;;-2.63;58.40;101718.69;4890258;29;20448;-78
2022/02/28 02:20:10;;;;;;;9.90;5.32;;;;;;;-2.65;58.57;101710.03;4905329;29;20140;-78
2022/02/28 02:22:36;;;;;;;12.23;5.35;;;;;;;-2.63;58.31;101711.91;4855889;29;20040;-78
2022/02/28 02:25:02;;;;;;;10.85;4.68;;;;;;;-2.66;58.14;101718.44;4887196;29;21025;-78
2022/02/28 02:27:28;;;;;;;13.25;4.40;;;;;;;-2.68;58.30;101723.44;4904531;29;20043;-78
2022/02/28 02:29:54;;;;;;;9.13;4.55;;;;;;;-2.68;58.45;101717.44;4902374;29;20091;-77
2022/02/28 02:32:20;;;;;;;8.68;4.28;;;;;;;-2.73;58.86;101706.91;4887794;29;20052;-79
2022/02/28 02:34:50;;;;;;;7.47;4.22;;;;;;;-2.73;58.90;101705.22;4918625;29;20132;-78
2022/02/28 02:37:16;;;;;;;10.13;4.25;;;;;;;-2.72;58.55;101706.13;4873391;29;20184;-78
2022/02/28 02:39:43;;;;;;;7.18;4.07;;;;;;;-2.60;58.78;101713.81;4892421;29;20056;-78
2022/02/28 02:42:11;;;;;;;9.77;4.00;;;;;;;-2.61;58.43;101715.47;4886037;29;20051;-77
2022/02/28 02:44:37;;;;;;;7.10;3.90;;;;;;;-2.63;58.84;101711.91;4895636;29;20036;-79
2022/02/28 02:47:04;;;;;;;8.60;3.90;;;;;;;-2.61;58.62;101712.03;4909164;29;20082;-78
2022/02/28 02:50:04;;;;;;;7.05;3.55;;;;;;;-2.77;58.55;101707.44;4919194;29;20072;-78
2022/02/28 02:52:30;;;;;;;7.70;3.95;;;;;;;-2.85;58.41;101704.31;4880962;29;20083;-79
2022/02/28 02:54:56;;;;;;;7.07;3.33;;;;;;;-2.95;59.20;101697.63;4905242;29;20040;-79
2022/02/28 02:57:26;;;;;;;5.38;3.63;;;;;;;-2.80;59.21;101707.19;4887051;29;20167;-76
2022/02/28 02:59:52;;;;;;;9.20;3.45;;;;;;;-2.87;58.72;101691.44;4885886;29;20067;-79
2022/02/28 03:02:18;;;;;;;7.18;3.67;;;;;;;-2.88;58.80;101684.59;4885003;29;20086;-78
2022/02/28 03:04:44;;;;;;;9.35;3.60;;;;;;;-2.75;59.00;101700.81;4901834;29;20139;-81
2022/02/28 03:07:19;;;;;;;9.07;3.80;;;;;;;-2.76;59.01;101699.91;4901002;29;20066;-80
2022/02/28 03:09:46;;;;;;;8.10;3.80;;;;;;;-2.81;58.94;101691.03;4869638;29;20071;-80
2022/02/28 03:12:13;;;;;;;8.43;3.67;;;;;;;-2.85;59.14;101688.13;4885022;29;20485;-78
2022/02/28 03:14:39;;;;;;;9.30;3.65;;;;;;;-2.90;59.36;101695.44;4902181;29;20087;-78
2022/02/28 03:17:07;;;;;;;7.85;3.70;;;;;;;-2.81;59.05;101711.44;4875810;29;20131;-79
2022/02/28 03:19:33;;;;;;;9.82;3.35;;;;;;;-2.91;59.16;101694.56;4884247;29;20587;-77
2022/02/28 03:21:59;;;;;;;7.45;3.28;;;;;;;-2.80;59.39;101715.75;4902058;29;20127;-77
2022/02/28 03:24:26;;;;;;;7.57;3.92;;;;;;;-2.83;59.07;101712.97;4908054;29;20192;-77
2022/02/28 03:26:52;;;;;;;9.50;4.25;;;;;;;-2.84;59.65;101720.47;4901946;29;20052;-79
2022/02/28 03:29:18;;;;;;;7.88;4.00;;;;;;;-2.88;59.29;101714.28;4901711;29;20050;-80
2022/02/28 03:31:44;;;;;;;11.18;5.22;;;;;;;-2.93;59.17;101702.84;4885046;29;20045;-79
2022/02/28 03:34:12;;;;;;;9.27;4.57;;;;;;;-2.84;59.50;101721.38;4894722;29;20047;-80
2022/02/28 03:36:38;;;;;;;9.25;4.57;;;;;;;-3.03;59.38;101697.06;4910846;29;20032;-79
2022/02/28 03:39:12;;;;;;;7.85;4.07;;;;;;;-3.01;59.46;101698.84;4903282;29;20044;-80
2022/02/28 03:41:38;;;;;;;10.70;4.80;;;;;;;-3.08;59.58;101711.09;4896718;29;20037;-80
2022/02/28 03:44:05;;;;;;;10.48;5.45;;;;;;;-3.08;59.33;101708.53;4863873;29;20045;-79
2022/02/28 03:46:35;;;;;;;10.60;5.68;;;;;;;-3.21;59.48;101690.56;4892362;29;20071;-77
2022/02/28 03:49:14;;;;;;;12.25;4.80;;;;;;;-2.97;59.46;101733.94;4915815;29;20068;-77
2022/02/28 03:52:06;;;;;;;;;;;;;;;-3.01;59.11;101737.03;4896105;29;20056;-80
2022/02/28 03:54:53;;;;;;;12.27;5.10;;;;;;;-3.24;59.38;101708.13;4902294;29;19926;-80
2022/02/28 03:57:19;;;;;;;12.15;5.40;;;;;;;-3.10;59.51;101743.19;4889348;29;20040;-79
2022/02/28 03:59:49;;;;;;;12.15;5.47;;;;;;;-3.35;59.33;101710.72;4907268;29;20048;-80
2022/02/28 04:02:16;;;;;;;8.48;5.28;;;;;;;-3.30;59.13;101728.03;4881890;29;20040;-80
2022/02/28 04:04:45;;;;;;;9.65;4.68;;;;;;;-3.45;59.27;101723.50;4882384;29;20040;-81
2022/02/28 04:07:12;;;;;;;9.90;4.90;;;;;;;-3.24;59.94;101753.97;4889869;29;20067;-79
2022/02/28 04:09:39;;;;;;;11.07;4.80;;;;;;;-3.20;59.71;101761.09;4872325;29;20091;-80
2022/02/28 04:12:08;;;;;;;8.55;4.20;;;;;;;-3.64;59.53;101677.91;4894563;29;20069;-78
2022/02/28 04:14:35;;;;;;;8.85;4.78;;;;;;;-3.19;59.49;101757.75;4898526;29;20130;-79
2022/02/28 04:17:03;;;;;;;8.57;4.65;;;;;;;-3.43;60.10;101724.53;4872343;29;20474;-79
2022/02/28 04:19:40;;;;;;;9.23;4.53;;;;;;;-3.33;60.04;101732.09;4911340;29;20570;-77
2022/02/28 04:22:08;;;;;;;7.90;3.90;;;;;;;-3.28;59.30;101747.72;4897029;29;20036;-79
2022/02/28 04:24:43;;;;;;;9.70;4.40;;;;;;;-3.18;59.64;101764.63;4880963;29;20531;-79
2022/02/28 04:27:10;;;;;;;7.53;4.45;;;;;;;-3.31;59.92;101746.63;4889636;29;20043;-79
2022/02/28 04:29:38;;;;;;;8.27;4.43;;;;;;;-3.20;59.82;101766.19;4900318;29;20040;-78
2022/02/28 04:32:10;;;;;;;10.63;4.18;;;;;;;-3.26;59.72;101751.28;4895699;29;20051;-78
2022/02/28 04:34:44;;;;;;;8.35;4.50;;;;;;;-3.21;60.26;101749.13;4881641;29;20036;-80
2022/02/28 04:37:10;;;;;;;10.45;4.93;;;;;;;-3.20;59.29;101748.34;4890170;29;20056;-77
2022/02/28 04:39:39;;;;;;;14.95;4.82;;;;;;;-3.21;59.95;101744.91;4900282;29;20044;-79
2022/02/28 04:42:06;;;;;;;7.05;4.13;;;;;;;-3.09;59.68;101759.38;4907320;29;20083;-82
2022/02/28 04:44:41;;;;;;;8.57;4.57;;;;;;;-3.21;59.69;101754.22;4900588;29;20067;-79
2022/02/28 04:47:08;;;;;;;8.57;4.70;;;;;;;-3.19;59.99;101752.66;4898168;29;20040;-79
2022/02/28 04:50:00;;;;;;;;;;;;;;;-3.01;60.17;101755.75;4896789;29;20048;-77
2022/02/28 04:52:26;;;;;;;9.13;3.90;;;;;;;-3.12;60.36;101734.53;4916287;29;19986;-80
2022/02/28 04:54:55;;;;;;;9.52;4.72;;;;;;;-2.89;60.14;101754.16;4881387;29;20044;-78
2022/02/28 04:57:21;;;;;;;14.15;4.30;;;;;;;-2.79;60.36;101763.41;4889450;29;20040;-76
2022/02/28 04:59:47;;;;;;;10.63;4.88;;;;;;;-2.86;59.92;101740.75;4915643;29;20044;-78
2022/02/28 05:02:15;;;;;;;12.30;4.40;;;;;;;-2.52;59.92;101750.97;4877641;29;20076;-77
2022/02/28 05:04:51;;;;;;;11.30;5.43;;;;;;;-1.72;60.04;101757.63;4907445;29;20036;-79
2022/02/28 05:07:18;;;;;;;9.20;4.90;;;;;;;-0.80;59.77;101777.69;4892886;29;20059;-78
2022/02/28 05:09:45;;;;;;;10.25;4.45;;;;;;;0.03;58.73;101754.19;4897478;29;20463;-79
2022/02/28 05:12:16;;;;;;;11.38;4.47;;;;;;;0.89;58.71;101753.66;4909035;29;20044;-82
2022/02/28 05:14:50;;;;;;;7.78;4.30;;;;;;;1.25;56.09;101727.59;4851568;29;20037;-79
2022/02/28 05:17:17;;;;;;;6.35;4.05;;;;;;;1.98;56.58;101749.78;4898603;29;20047;-80
2022/02/28 05:19:43;;;;;;;8.02;3.95;;;;;;;2.31;55.81;101746.47;4899252;29;20044;-79
2022/02/28 05:22:10;;;;;;;12.18;4.63;;;;;;;2.20;54.91;101736.47;4899612;29;20044;-79
2022/02/28 05:24:45;;;;;;;9.70;4.95;;;;;;;2.20;53.83;101761.28;4895718;29;20056;-78
2022/02/28 05:27:11;;;;;;;9.85;4.85;;;;;;;2.44;54.01;101719.75;4888845;29;20048;-80
2022/02/28 05:29:37;;;;;;;11.05;5.35;;;;;;;3.19;53.19;101727.16;4908374;29;20064;-78
2022/02/28 05:32:04;;;;;;;10.48;4.50;;;;;;;3.82;52.83;101737.19;4915815;29;20047;-78
2022/02/28 05:34:59;;;;;;;8.02;4.05;;;;;;;4.05;51.32;101767.56;4915380;29;20024;-77
2022/02/28 05:37:42;;;;;;;15.43;4.85;;;;;;;3.60;50.76;101760.19;4901779;29;20186;-79
2022/02/28 05:40:12;;;;;;;7.10;4.68;;;;;;;3.16;50.33;101763.91;4909307;29;20047;-82
2022/02/28 05:42:44;;;;;;;9.38;4.80;;;;;;;2.59;50.30;101736.00;4875952;29;20134;-81
2022/02/28 05:45:13;;;;;;;10.73;4.95;;;;;;;2.39;50.63;101769.22;4877649;29;20049;-79
2022/02/28 05:47:48;;;;;;;8.30;4.70;;;;;;;2.08;50.80;101764.03;4888626;29;20036;-80
2022/02/28 05:50:15;;;;;;;8.98;4.20;;;;;;;1.73;50.26;101773.16;4888312;29;20049;-80
2022/02/28 05:52:41;;;;;;;10.73;5.13;;;;;;;1.30;50.64;101763.75;4888640;29;21469;-81
2022/02/28 05:55:08;;;;;;;7.43;4.20;;;;;;;1.18;51.17;101774.16;4903818;29;20040;-79
2022/02/28 05:57:39;;;;;;;13.85;4.32;;;;;;;0.84;51.04;101759.28;4886285;29;20045;-80
2022/02/28 06:00:22;;;;;;;7.22;4.90;;;;;;;0.79;51.54;101758.97;4900795;29;20048;-82
2022/02/28 06:02:51;;;;;;;8.73;4.95;;;;;;;0.86;51.78;101783.34;4900507;29;20083;-80
2022/02/28 06:05:19;;;;;;;9.95;4.90;;;;;;;0.66;51.56;101753.88;4891014;29;20051;-78
2022/02/28 06:07:50;;;;;;;11.70;5.18;;;;;;;0.71;50.91;101773.88;4903199;29;20059;-81
2022/02/28 06:10:16;;;;;;;13.85;7.05;;;;;;;0.70;51.27;101761.84;4885806;29;20479;-79
2022/02/28 06:12:43;;;;;;;14.73;6.30;;;;;;;0.81;51.38;101752.28;4918887;29;20140;-77
2022/02/28 06:15:09;;;;;;;13.25;6.03;;;;;;;0.84;51.54;101742.22;4887039;29;20139;-80
2022/02/28 06:17:36;;;;;;;12.30;5.97;;;;;;;1.13;51.07;101761.06;4903695;29;20124;-82
2022/02/28 06:20:04;;;;;;;12.02;6.07;;;;;;;1.57;50.68;101779.06;4906056;29;20048;-83
2022/02/28 06:22:33;;;;;;;20.17;7.15;;;;;;;2.10;50.77;101744.44;4916956;29;20075;-80
2022/02/28 06:25:00;;;;;;;12.48;5.57;;;;;;;4.42;51.81;101777.88;4869645;29;20040;-81
2022/02/28 06:27:26;;;;;;;6.90;4.28;;;;;;;6.18;49.34;101752.06;4918123;29;20067;-80
2022/02/28 06:29:52;;;;;;;11.32;4.18;;;;;;;7.10;47.18;101750.38;4913608;29;20555;-80
2022/02/28 06:32:23;;;;;;;6.80;4.05;;;;;;;7.19;45.44;101755.88;4912676;29;20514;-79
2022/02/28 06:34:51;;;;;;;9.68;4.30;;;;;;;6.93;43.66;101731.63;4880706;29;20047;-81
2022/02/28 06:37:17;;;;;;;6.07;4.03;;;;;;;6.80;44.06;101743.22;4882811;29;20054;-79
2022/02/28 06:39:47;;;;;;;9.13;4.47;;;;;;;6.73;43.54;101746.44;4910742;29;21115;-80
2022/02/28 06:42:30;;;;;;;8.25;4.60;;;;;;;6.33;43.85;101663.88;4915919;29;20035;-79
2022/02/28 06:44:59;;;;;;;12.23;4.07;;;;;;;7.09;42.96;101707.19;4922962;29;20056;-80
2022/02/28 06:47:40;;;;;;;8.07;4.20;;;;;;;8.06;42.20;101730.31;4923211;29;20103;-80
2022/02/28 06:50:06;;;;;;;5.30;3.70;;;;;;;8.37;41.59;101765.00;4922281;29;20076;-78
2022/02/28 06:52:38;;;;;;;8.83;4.00;;;;;;;8.21;40.74;101771.41;4923267;29;20202;-79
2022/02/28 06:55:04;;;;;;;6.25;3.95;;;;;;;7.90;40.65;101774.72;4916358;29;20304;-82
2022/02/28 06:57:34;;;;;;;8.35;4.43;;;;;;;7.50;40.41;101735.38;4909811;29;20122;-79
2022/02/28 07:00:07;;;;;;;10.73;4.50;;;;;;;7.45;40.74;101776.66;4909873;29;20040;-81
2022/02/28 07:02:43;;;;;;;7.45;4.90;;;;;;;7.49;40.46;101762.97;4907516;29;20048;-80
2022/02/28 07:05:16;;;;;;;10.70;4.03;;;;;;;7.79;39.65;101757.09;4874913;29;20037;-78
2022/02/28 07:07:58;;;;;;;6.50;4.18;;;;;;;8.41;40.15;101753.00;4906888;29;20060;-79
2022/02/28 07:10:27;;;;;;;6.05;3.70;;;;;;;8.78;39.25;101748.09;4891262;29;20046;-78
2022/02/28 07:12:53;;;;;;;10.20;4.28;;;;;;;9.90;38.46;101770.22;4904004;29;20415;-77
2022/02/28 07:15:25;;;;;;;8.70;4.40;;;;;;;11.26;37.79;101762.84;4916370;29;20035;-78
2022/02/28 07:18:00;;;;;;;15.27;4.13;;;;;;;13.47;36.19;101699.06;4894173;29;20470;-81
2022/02/28 07:20:29;;;;;;;5.82;3.72;;;;;;;16.09;33.52;101765.81;4888071;29;20054;-79
2022/02/28 07:22:58;;;;;;;5.53;3.85;;;;;;;17.00;30.57;101738.41;4877370;29;20041;-79
2022/02/28 07:25:27;;;;;;;8.90;3.80;;;;;;;18.63;30.45;101755.59;4906090;29;20045;-80
2022/02/28 07:28:20;;;;;;;6.03;3.72;;;;;;;20.10;28.70;101735.88;4880295;29;20114;-81
2022/02/28 07:30:46;;;;;;;8.98;3.72;;;;;;;21.59;27.09;101741.63;4896237;29;20055;-78
2022/02/28 07:33:12;;;;;;;6.97;4.00;;;;;;;22.61;25.51;101713.41;4904779;29;20040;-84
2022/02/28 07:35:38;;;;;;;6.03;3.95;;;;;;;23.35;24.28;101742.16;4890190;29;20063;-80
2022/02/28 07:38:05;;;;;;;6.47;3.97;;;;;;;24.48;23.39;101730.34;4871869;29;20040;-79
2022/02/28 07:40:34;;;;;;;4.72;3.80;;;;;;;24.95;21.84;101737.47;4906665;29;20051;-80
2022/02/28 07:43:04;;;;;;;6.85;3.70;;;;;;;25.16;21.95;101737.59;4921433;29;20140;-80
2022/02/28 07:45:32;;;;;;;8.63;3.72;;;;;;;24.73;21.31;101724.16;4894820;29;20100;-80
2022/02/28 07:48:10;;;;;;;9.40;4.38;;;;;;;23.90;21.15;101736.81;4900926;29;20048;-80
2022/02/28 07:50:36;;;;;;;8.13;3.83;;;;;;;23.68;21.21;101726.91;4911378;29;20041;-79
2022/02/28 07:53:02;;;;;;;6.55;4.20;;;;;;;24.28;21.01;101673.44;4889373;29;20051;-78
2022/02/28 07:55:31;;;;;;;5.97;4.10;;;;;;;25.95;20.34;101705.03;4908580;29;20591;-82
2022/02/28 07:57:59;;;;;;;6.25;4.40;;;;;;;27.33;19.35;101725.44;4906680;29;20051;-81
2022/02/28 08:00:28;;;;;;;7.05;4.18;;;;;;;28.60;18.16;101720.72;4922563;29;20044;-80
2022/02/28 08:02:57;;;;;;;6.68;3.67;;;;;;;29.83;17.51;101704.81;4892090;29;21124;-79
2022/02/28 08:05:33;;;;;;;5.72;3.90;;;;;;;30.15;16.30;101687.72;4907770;29;20142;-79
2022/02/28 08:07:59;;;;;;;5.57;3.47;;;;;;;30.00;16.61;101721.75;4923721;29;20529;-80
2022/02/28 08:10:28;;;;;;;4.07;3.20;;;;;;;30.53;16.19;101713.09;4926569;29;20059;-79
2022/02/28 08:16:19;;;;;;;3.83;3.10;;;;;;;30.08;15.27;101710.53;4912994;29;20533;-81
2022/02/28 08:19:25;;;;;;;8.10;3.22;;;;;;;25.94;16.49;101701.50;4884862;29;20052;-82
2022/02/28 08:22:24;;;;;;;8.73;3.22;;;;;;;22.76;17.72;101625.38;4893647;29;20055;-78
2022/02/28 08:24:52;;;;;;;6.80;3.33;;;;;;;20.99;18.45;101643.31;4928812;29;20043;-80
2022/02/28 08:27:18;;;;;;;5.07;3.15;;;;;;;19.57;19.17;101678.66;4927319;29;20044;-81
2022/02/28 08:29:50;;;;;;;5.07;3.33;;;;;;;18.19;19.81;101697.19;4925038;29;20053;-81
2022/02/28 08:32:22;;;;;;;4.68;3.10;;;;;;;17.36;20.73;101740.84;4903989;29;20502;-78
2022/02/28 08:34:57;;;;;;;5.40;3.15;;;;;;;15.94;20.99;101680.03;4908488;29;20044;-80
2022/02/28 08:37:24;;;;;;;4.03;2.85;;;;;;;14.96;21.77;101728.84;4905114;29;20052;-81
2022/02/28 08:39:50;;;;;;;6.88;3.30;;;;;;;14.08;23.19;101716.13;4922385;29;20494;-80
2022/02/28 08:42:17;;;;;;;4.95;3.22;;;;;;;13.55;23.83;101727.91;4921921;29;20055;-80
2022/02/28 08:44:46;;;;;;;3.72;3.05;;;;;;;13.02;24.28;101721.22;4924221;29;20103;-79
2022/02/28 08:47:12;;;;;;;4.05;3.38;;;;;;;12.39;24.82;101723.91;4897750;29;20395;-79
2022/02/28 08:49:38;;;;;;;5.40;3.40;;;;;;;11.77;25.22;101735.97;4908978;29;20058;-82
2022/02/28 08:52:06;;;;;;;7.70;5.68;;;;;;;11.45;26.25;101735.41;4889238;29;20466;-82
2022/02/28 08:54:31;;;;;;;5.72;4.22;;;;;;;11.27;26.92;101740.28;4890658;29;20052;-81
2022/02/28 08:57:00;;;;;;;5.35;3.72;;;;;;;10.98;27.14;101707.59;4887904;29;20063;-79
2022/02/28 08:59:26;;;;;;;4.25;3.53;;;;;;;10.81;27.32;101704.66;4921709;29;20537;-81
2022/02/28 09:01:52;;;;;;;6.55;3.38;;;;;;;10.74;27.87;101704.50;4889367;29;20040;-81
2022/02/28 09:04:19;;;;;;;5.88;2.70;;;;;;;10.59;27.69;101725.88;4894905;29;20051;-81
2022/02/28 09:07:04;;;;;;;;;;;;;;;;;;;;;
2022/02/28 09:09:36;;;;;;;7.55;2.97;;;;;;;9.47;28.71;101660.81;4907705;29;20465;-83
2022/02/28 09:12:15;;;;;;;3.85;2.20;;;;;;;9.61;28.45;101727.00;4909558;29;20040;-81
2022/02/28 09:14:41;;;;;;;5.60;1.90;;;;;;;9.06;29.45;101691.78;4908593;29;20047;-81
2022/02/28 09:17:11;;;;;;;3.33;2.00;;;;;;;8.30;29.42;101633.34;4914708;29;20067;-82
2022/02/28 09:19:47;;;;;;;5.00;2.20;;;;;;;8.29;30.25;101655.84;4879567;29;20718;-80
2022/02/28 09:22:53;;;;;;;3.53;2.00;;;;;;;8.25;31.05;101653.97;4904818;29;20046;-82
2022/02/28 09:25:24;;;;;;;3.65;2.10;;;;;;;8.19;30.75;101684.03;4920207;29;20040;-81
2022/02/28 09:27:56;;;;;;;5.57;2.20;;;;;;;8.12;31.16;101712.34;4897179;29;20570;-80
2022/02/28 09:30:38;;;;;;;2.92;1.95;;;;;;;7.61;31.79;101632.13;4900113;29;20047;-79
2022/02/28 09:33:04;;;;;;;4.07;2.50;;;;;;;8.04;31.71;101713.84;4921466;29;20527;-79
2022/02/28 09:35:30;;;;;;;5.43;2.35;;;;;;;7.80;31.59;101664.66;4914526;29;20047;-80
2022/02/28 09:38:07;;;;;;;3.78;2.50;;;;;;;8.04;32.23;101737.19;4906629;29;20047;-80
2022/02/28 09:41:01;;;;;;;3.42;2.30;;;;;;;7.04;32.56;101628.47;4915881;29;20055;-82
2022/02/28 09:43:35;;;;;;;4.07;2.40;;;;;;;7.01;32.92;101665.50;4926472;29;20537;-81
2022/02/28 09:46:36;;;;;;;4.75;2.70;;;;;;;7.17;33.21;101655.66;4908807;29;20496;-81
2022/02/28 09:49:24;;;;;;;6.72;2.92;;;;;;;7.30;33.22;101641.44;4899781;29;20576;-80
2022/02/28 09:52:26;;;;;;;4.60;2.42;;;;;;;6.87;33.31;101600.31;4910795;29;20494;-78
2022/02/28 09:55:16;;;;;;;5.47;2.97;;;;;;;6.89;33.62;101585.72;4909046;29;20214;-79
2022/02/28 09:58:06;;;;;;;3.90;2.60;;;;;;;7.71;33.84;101691.16;4910962;29;20121;-82
2022/02/28 10:00:53;;;;;;;5.57;2.75;;;;;;;7.76;33.67;101691.31;4922614;29;20044;-80
2022/02/28 10:03:20;;;;;;;5.70;2.92;;;;;;;7.76;33.99;101706.84;4924385;29;20047;-80
2022/02/28 10:05:47;;;;;;;4.97;2.63;;;;;;;7.29;34.48;101645.72;4908646;29;20234;-80
2022/02/28 10:11:51;;;;;;;6.47;3.30;;;;;;;7.73;34.19;101709.34;4901059;29;20480;-82
2022/02/28 10:14:21;;;;;;;6.97;3.55;;;;;;;7.62;33.90;101696.94;4908188;29;20043;-82
2022/02/28 10:17:36;;;;;;;7.25;2.42;;;;;;;7.74;34.31;101678.31;4930106;29;20044;-81
2022/02/28 10:20:22;;;;;;;4.65;2.45;;;;;;;8.07;34.27;101706.13;4916534;29;20044;-80
2022/02/28 10:23:06;;;;;;;6.85;2.70;;;;;;;8.16;34.24;101700.38;4894208;29;20044;-83
2022/02/28 10:25:53;;;;;;;6.10;2.83;;;;;;;8.24;33.75;101687.66;4907415;29;20571;-82
2022/02/28 10:28:38;;;;;;;6.70;3.20;;;;;;;8.40;33.69;101710.63;4898621;29;20046;-81
2022/02/28 10:31:35;;;;;;;6.15;2.50;;;;;;;8.41;33.25;101694.22;4925402;29;20522;-82
2022/02/28 10:37:49;;;;;;;4.90;2.55;;;;;;;7.86;33.76;101565.47;4902312;29;20047;-81
2022/02/28 10:40:15;;;;;;;3.88;2.50;;;;;;;8.27;33.57;101604.75;4914345;29;20052;-79
2022/02/28 10:42:54;;;;;;;4.13;2.30;;;;;;;8.51;33.50;101629.66;4909408;29;20139;-81
2022/02/28 10:45:25;;;;;;;4.97;2.47;;;;;;;8.59;33.42;101618.69;4924659;29;20044;-80
2022/02/28 10:47:57;;;;;;;4.03;2.60;;;;;;;8.82;33.29;101682.47;4930208;29;20145;-83
2022/02/28 10:50:38;;;;;;;6.43;2.47;;;;;;;8.59;33.63;101633.38;4912559;29;20130;-79
2022/02/28 10:53:14;;;;;;;3.20;2.00;;;;;;;8.65;33.21;101653.41;4929315;29;20047;-79
2022/02/28 10:55:42;;;;;;;4.63;2.22;;;;;;;8.51;33.66;101655.59;4888878;29;20566;-80
2022/02/28 10:58:16;;;;;;;5.60;2.20;;;;;;;8.61;33.50;101685.34;4916795;29;20043;-80
2022/02/28 11:00:55;;;;;;;8.02;2.15;;;;;;;8.41;33.56;101654.44;4906296;29;20051;-80
2022/02/28 11:03:27;;;;;;;3.13;2.03;;;;;;;8.46;33.65;101678.81;4893309;29;20047;-81
2022/02/28 11:05:59;;;;;;;3.95;1.90;;;;;;;7.98;33.43;101643.66;4899354;29;20142;-83
2022/02/28 11:08:27;;;;;;;3.65;2.13;;;;;;;7.92;33.80;101687.50;4940882;29;20039;-80
2022/02/28 11:10:55;;;;;;;3.72;2.28;;;;;;;7.69;33.96;101652.25;4936663;29;20039;-81
2022/02/28 11:13:22;;;;;;;4.97;2.42;;;;;;;7.73;34.21;101629.00;4921864;29;20064;-80
2022/02/28 11:15:49;;;;;;;4.10;2.20;;;;;;;7.28;34.24;101565.41;4900958;29;20094;-81
2022/02/28 11:18:20;;;;;;;5.03;2.45;;;;;;;8.02;34.50;101673.13;4939352;29;20047;-80
2022/02/28 11:20:55;;;;;;;5.25;2.45;;;;;;;8.11;34.59;101658.72;4915843;29;20075;-79
2022/02/28 11:23:27;;;;;;;5.18;2.42;;;;;;;8.19;34.34;101673.66;4896910;29;20046;-78
2022/02/28 11:25:55;;;;;;;4.80;2.15;;;;;;;8.07;33.86;101669.84;4905903;29;20047;-81
2022/02/28 11:28:28;;;;;;;3.33;2.08;;;;;;;7.72;33.75;101622.97;4902732;29;20142;-80
2022/02/28 11:31:05;;;;;;;4.15;2.80;;;;;;;7.88;34.08;101657.13;4902939;29;20521;-79
2022/02/28 11:33:49;;;;;;;3.55;2.17;;;;;;;7.87;34.15;101639.81;4887980;29;20048;-80
2022/02/28 11:36:20;;;;;;;3.80;2.17;;;;;;;7.53;34.12;101552.41;4903560;29;20131;-80
2022/02/28 11:38:50;;;;;;;4.28;2.45;;;;;;;7.95;34.12;101610.72;4923789;29;20047;-80
2022/02/28 11:41:26;;;;;;;3.10;2.20;;;;;;;8.16;34.00;101648.53;4920481;29;20035;-82
2022/02/28 11:43:52;;;;;;;3.25;2.33;;;;;;;7.87;33.61;101621.66;4867298;29;20056;-80
2022/02/28 11:46:21;;;;;;;4.85;2.33;;;;;;;7.84;33.92;101632.84;4893207;29;20537;-81
2022/02/28 11:48:55;;;;;;;4.45;2.38;;;;;;;7.91;33.47;101657.22;4912883;29;20091;-80
2022/02/28 11:51:33;;;;;;;5.93;2.72;;;;;;;7.50;33.94;101600.69;4927569;29;20134;-81
2022/02/28 11:54:03;;;;;;;7.28;3.15;;;;;;;7.81;33.87;101651.78;4891233;29;20106;-82
2022/02/28 11:56:30;;;;;;;8.73;3.08;;;;;;;7.66;33.61;101657.34;4921816;29;20079;-82